createdAt,value
2022-08-03T00:00:55.158Z,16.36
2022-08-03T00:06:04.593Z,16.31
2022-08-03T00:11:08.215Z,16.27
2022-08-03T00:16:11.443Z,16.24
2022-08-03T00:21:14.634Z,16.25
2022-08-03T00:26:18.620Z,16.26
2022-08-03T00:31:39.861Z,16.25
2022-08-03T00:36:44.216Z,16.22
2022-08-03T00:41:46.936Z,16.21
2022-08-03T00:46:49.917Z,16.20
2022-08-03T00:51:52.843Z,16.19
2022-08-03T00:56:59.796Z,16.18
2022-08-03T01:02:03.636Z,16.14
2022-08-03T01:07:29.005Z,16.11
2022-08-03T01:12:40.899Z,16.13
2022-08-03T01:18:15.158Z,16.16
2022-08-03T01:23:42.721Z,16.18
2022-08-03T01:29:04.338Z,16.15
2022-08-03T01:34:14.665Z,16.09
2022-08-03T01:39:19.667Z,16.00
2022-08-03T01:44:29.378Z,15.92
2022-08-03T01:49:38.836Z,15.88
2022-08-03T01:54:45.523Z,15.86
2022-08-03T01:59:51.402Z,15.82
2022-08-03T02:04:57.870Z,15.73
2022-08-03T02:10:03.060Z,15.64
2022-08-03T02:15:07.741Z,15.55
2022-08-03T02:20:12.627Z,15.49
2022-08-03T02:25:16.701Z,15.50
2022-08-03T02:30:20.741Z,15.55
2022-08-03T02:35:27.176Z,15.62
2022-08-03T02:40:31.561Z,15.68
2022-08-03T02:45:45.357Z,15.71
2022-08-03T02:50:50.334Z,15.72
2022-08-03T02:55:55.379Z,15.72
2022-08-03T03:00:58.988Z,15.70
2022-08-03T03:06:05.651Z,15.68
2022-08-03T03:11:10.394Z,15.68
2022-08-03T03:16:15.740Z,15.67
2022-08-03T03:21:21.043Z,15.68
2022-08-03T03:26:24.001Z,15.72
2022-08-03T03:31:26.833Z,15.77
2022-08-03T03:36:29.887Z,15.86
2022-08-03T03:41:33.911Z,15.95
2022-08-03T03:46:39.484Z,16.02
2022-08-03T03:51:42.286Z,16.05
2022-08-03T03:56:45.187Z,16.05
2022-08-03T04:01:48.430Z,16.07
2022-08-03T04:07:20.822Z,16.10
2022-08-03T04:12:26.473Z,16.13
2022-08-03T04:17:32.621Z,16.17
2022-08-03T04:22:36.895Z,16.24
2022-08-03T04:27:42.061Z,16.34
2022-08-03T04:32:51.806Z,16.44
2022-08-03T04:37:57.089Z,16.51
2022-08-03T04:43:00.873Z,16.59
2022-08-03T04:48:05.109Z,16.70
2022-08-03T04:53:08.242Z,16.86
2022-08-03T04:58:13.107Z,17.09
2022-08-03T05:03:20.363Z,17.38
2022-08-03T05:08:27.783Z,17.73
2022-08-03T05:13:31.483Z,18.06
2022-08-03T05:18:34.421Z,18.42
2022-08-03T05:23:38.164Z,18.80
2022-08-03T05:28:50.646Z,19.18
2022-08-03T05:33:54.692Z,19.59
2022-08-03T05:39:02.206Z,20.26
2022-08-03T05:44:05.548Z,21.44
2022-08-03T05:49:08.397Z,23.24
2022-08-03T05:54:11.547Z,25.23
2022-08-03T05:59:36.907Z,26.98
2022-08-03T06:04:37.234Z,28.41
2022-08-03T06:10:35.283Z,29.67
2022-08-03T06:15:05.027Z,30.38
2022-08-03T06:20:08.873Z,30.38
2022-08-03T06:25:14.164Z,30.41
2022-08-03T06:30:21.057Z,30.95
2022-08-03T06:35:24.550Z,30.47
2022-08-03T06:40:31.468Z,30.40
2022-08-03T06:45:35.463Z,31.97
2022-08-03T06:50:40.296Z,32.51
2022-08-03T06:55:42.995Z,33.00
2022-08-03T07:00:45.688Z,34.03
2022-08-03T07:05:49.302Z,34.89
2022-08-03T07:10:52.607Z,35.52
2022-08-03T07:15:56.562Z,36.10
2022-08-03T07:20:59.569Z,35.15
2022-08-03T07:26:02.309Z,34.96
2022-08-03T07:31:05.035Z,36.75
2022-08-03T07:36:08.217Z,37.24
2022-08-03T07:41:11.033Z,37.35
2022-08-03T07:46:15.160Z,38.77
2022-08-03T07:51:17.914Z,40.22
2022-08-03T07:56:21.587Z,41.34
2022-08-03T08:01:24.657Z,41.25
2022-08-03T08:06:27.955Z,40.90
2022-08-03T08:11:30.998Z,40.37
2022-08-03T08:16:33.746Z,39.67
2022-08-03T08:21:53.205Z,38.22
2022-08-03T08:27:00.053Z,36.77
2022-08-03T08:32:02.834Z,35.67
2022-08-03T08:37:05.600Z,35.04
2022-08-03T08:42:10.477Z,35.01
2022-08-03T08:47:15.138Z,35.40
2022-08-03T08:52:25.206Z,35.68
2022-08-03T08:57:43.527Z,35.99
2022-08-03T09:02:47.111Z,36.93
2022-08-03T09:07:50.277Z,38.66
2022-08-03T09:12:53.407Z,39.18
2022-08-03T09:17:58.720Z,38.44
2022-08-03T09:23:51.592Z,38.10
2022-08-03T09:28:58.051Z,37.86
2022-08-03T09:34:01.401Z,38.55
2022-08-03T09:39:13.159Z,42.05
2022-08-03T09:44:24.972Z,42.83
2022-08-03T09:49:29.252Z,42.90
2022-08-03T09:54:32.703Z,44.22
2022-08-03T09:59:35.928Z,43.91
2022-08-03T10:04:50.137Z,42.80
2022-08-03T10:10:30.445Z,42.19
2022-08-03T10:16:22.448Z,41.93
2022-08-03T10:21:03.378Z,41.85
2022-08-03T10:26:08.350Z,41.71
2022-08-03T10:31:13.295Z,43.16
2022-08-03T10:36:17.338Z,44.64
2022-08-03T10:41:26.996Z,44.10
2022-08-03T10:46:29.809Z,44.88
2022-08-03T10:51:33.759Z,44.50
2022-08-03T10:56:55.485Z,42.89
2022-08-03T11:02:00.709Z,43.76
2022-08-03T11:07:24.985Z,45.21
2022-08-03T11:12:32.214Z,44.61
2022-08-03T11:17:51.443Z,44.24
2022-08-03T11:23:01.170Z,42.84
2022-08-03T11:28:28.392Z,42.02
2022-08-03T11:33:32.190Z,41.44
2022-08-03T11:38:34.866Z,40.71
2022-08-03T11:43:41.997Z,41.41
2022-08-03T11:48:47.577Z,41.06
2022-08-03T11:54:00.914Z,40.76
2022-08-03T11:59:20.677Z,41.12
2022-08-03T12:04:24.321Z,40.96
2022-08-03T12:09:27.129Z,40.78
2022-08-03T12:14:48.539Z,41.25
2022-08-03T12:19:53.200Z,40.83
2022-08-03T12:24:56.165Z,39.96
2022-08-03T12:30:01.604Z,40.21
2022-08-03T12:35:06.070Z,40.88
2022-08-03T12:40:13.225Z,41.17
2022-08-03T12:45:20.534Z,41.84
2022-08-03T12:50:28.923Z,41.70
2022-08-03T12:55:56.686Z,41.87
2022-08-03T13:00:59.441Z,41.92
2022-08-03T13:06:02.200Z,42.50
2022-08-03T13:11:22.065Z,43.09
2022-08-03T13:16:24.849Z,43.21
2022-08-03T13:21:27.754Z,43.35
2022-08-03T13:26:30.435Z,42.38
2022-08-03T13:31:33.291Z,40.21
2022-08-03T13:37:06.453Z,40.19
2022-08-03T13:41:58.960Z,40.54
2022-08-03T13:47:01.873Z,40.64
2022-08-03T13:52:05.061Z,39.35
2022-08-03T13:58:02.821Z,39.20
2022-08-03T14:02:30.563Z,37.90
2022-08-03T14:07:33.809Z,36.82
2022-08-03T14:12:36.516Z,36.84
2022-08-03T14:17:42.273Z,36.59
2022-08-03T14:22:53.335Z,36.67
2022-08-03T14:27:56.065Z,37.24
2022-08-03T14:33:00.931Z,37.16
2022-08-03T14:38:03.810Z,36.63
2022-08-03T14:43:06.516Z,36.34
2022-08-03T14:49:02.622Z,36.47
2022-08-03T14:53:32.376Z,36.02
2022-08-03T14:58:35.136Z,35.78
2022-08-03T15:03:37.893Z,35.54
2022-08-03T15:08:40.695Z,35.14
2022-08-03T15:13:43.739Z,34.49
2022-08-03T15:18:46.588Z,33.93
2022-08-03T15:23:49.260Z,33.52
2022-08-03T15:28:51.982Z,33.30
2022-08-03T15:33:55.237Z,33.00
2022-08-03T15:38:58.173Z,32.58
2022-08-03T15:44:06.213Z,32.23
2022-08-03T15:49:12.199Z,31.82
2022-08-03T15:54:14.967Z,31.58
2022-08-03T15:59:19.716Z,31.32
2022-08-03T16:04:22.845Z,31.13
2022-08-03T16:09:42.519Z,30.98
2022-08-03T16:14:54.124Z,30.86
2022-08-03T16:19:57.402Z,30.77
2022-08-03T16:25:01.123Z,30.61
2022-08-03T16:30:05.899Z,30.52
2022-08-03T16:35:19.826Z,30.45
2022-08-03T16:40:25.405Z,30.34
2022-08-03T16:45:28.134Z,30.13
2022-08-03T16:50:30.861Z,30.00
2022-08-03T16:55:43.324Z,29.85
2022-08-03T17:00:54.985Z,29.59
2022-08-03T17:06:00.182Z,29.45
2022-08-03T17:11:04.579Z,29.29
2022-08-03T17:16:09.760Z,29.15
2022-08-03T17:21:15.611Z,29.04
2022-08-03T17:26:21.867Z,28.85
2022-08-03T17:31:31.302Z,28.66
2022-08-03T17:37:03.280Z,28.48
2022-08-03T17:42:03.769Z,28.30
2022-08-03T17:47:06.792Z,28.11
2022-08-03T17:52:17.450Z,27.90
2022-08-03T17:58:01.279Z,27.69
2022-08-03T18:03:27.447Z,27.48
2022-08-03T18:08:36.457Z,27.26
2022-08-03T18:13:53.287Z,27.03
2022-08-03T18:19:09.654Z,26.77
2022-08-03T18:24:19.690Z,26.52
2022-08-03T18:29:23.254Z,26.27
2022-08-03T18:34:33.176Z,26.04
2022-08-03T18:39:50.158Z,25.78
2022-08-03T18:44:56.269Z,25.55
2022-08-03T18:50:08.910Z,25.35
2022-08-03T18:55:20.788Z,25.15
2022-08-03T19:00:55.030Z,24.93
2022-08-03T19:06:15.949Z,24.72
2022-08-03T19:12:12.395Z,24.46
2022-08-03T19:17:11.583Z,24.21
2022-08-03T19:22:17.901Z,23.99
2022-08-03T19:27:26.743Z,23.77
2022-08-03T19:32:32.506Z,23.53
2022-08-03T19:37:40.141Z,23.30
2022-08-03T19:42:46.437Z,23.09
2022-08-03T19:47:56.598Z,22.87
2022-08-03T19:53:06.745Z,22.65
2022-08-03T19:58:17.607Z,22.46
2022-08-03T20:03:43.064Z,22.28
2022-08-03T20:08:48.221Z,22.11
2022-08-03T20:13:55.246Z,21.95
2022-08-03T20:18:57.979Z,21.81
2022-08-03T20:24:24.187Z,21.68
2022-08-03T20:30:05.220Z,21.50
2022-08-03T20:34:59.840Z,21.28
2022-08-03T20:40:03.697Z,21.08
2022-08-03T20:45:13.846Z,20.92
2022-08-03T20:50:31.594Z,20.75
2022-08-03T20:55:47.562Z,20.62
2022-08-03T21:00:58.728Z,20.50
2022-08-03T21:06:07.147Z,20.40
2022-08-03T21:11:17.460Z,20.28
2022-08-03T21:16:21.829Z,20.15
2022-08-03T21:21:30.133Z,20.02
2022-08-03T21:26:34.518Z,19.90
2022-08-03T21:31:40.265Z,19.77
2022-08-03T21:36:43.151Z,19.64
2022-08-03T21:41:46.239Z,19.51
2022-08-03T21:46:50.317Z,19.40
2022-08-03T21:51:54.579Z,19.30
2022-08-03T21:57:05.645Z,19.18
2022-08-03T22:02:22.516Z,19.03
2022-08-03T22:07:29.218Z,18.85
2022-08-03T22:12:32.847Z,18.68
2022-08-03T22:17:54.957Z,18.53
2022-08-03T22:23:05.633Z,18.41
2022-08-03T22:28:12.271Z,18.31
2022-08-03T22:33:15.923Z,18.23
2022-08-03T22:38:18.883Z,18.15
2022-08-03T22:43:26.472Z,18.06
2022-08-03T22:48:33.126Z,18.00
2022-08-03T22:53:36.781Z,17.96
2022-08-03T22:58:40.058Z,17.91
2022-08-03T23:04:00.713Z,17.89
2022-08-03T23:09:08.246Z,17.88
2022-08-03T23:14:13.294Z,17.91
2022-08-03T23:19:25.005Z,17.96
2022-08-03T23:24:30.295Z,17.99
2022-08-03T23:29:38.928Z,18.00
2022-08-03T23:35:02.074Z,18.03
2022-08-03T23:40:06.306Z,18.07
2022-08-03T23:45:09.867Z,18.11
2022-08-03T23:50:12.910Z,18.18
2022-08-03T23:55:39.232Z,18.19
